KSDC Airport Information

Runway Information
Runway 10 Length 3800 ft width 60 ft
Elevation 0 ft Threshold 0 ft Heading 89
Runway 28 Length 3800 ft Width 60 ft
Elevation 0 ft Threshold 0 ft Heading 269
Airport Frequencies
Type A/D Name ROCHESTER Frequency 119.55 MHZ
Type UNIC Name CTAF/UNICO Frequency 122.8 MHZ
Airport Navaids
Airport Weather Information & NOTAM
ADDS - METARS form results

(0139 UTC 02 December 2021)
Data provider http://aviationweather.gov/metar/data/
 
METAR text: KSDC 020135Z AUTO 16006KT 130V190 10SM SCT100 03/M03 A2997 RMK AO2
Conditions at: KSDC (WILLIAMSON/SODUS, NY, US) observed 0135 UTC 02 December 2021
Temperature: 3.0°C (37°F)
Dewpoint: -3.0°C (27°F) [RH = 65%]
Pressure (altimeter): 29.97 inches Hg (1015.0 mb)
Winds: from the SSE (160 degrees) at 7 MPH (6 knots; 3.1 m/s)
Visibility: 10 or more miles (16+ km)
Ceiling: at least 12,000 feet AGL
Clouds: scattered clouds at 10000 feet AGL
Weather: automated observation with no human augmentation;
there may or may not be significant weather present at this time

METAR text: KSDC 020055Z AUTO 14004KT 10SM SCT080 BKN085 BKN100 03/M03 A3001 RMK AO2
Conditions at: KSDC (WILLIAMSON/SODUS, NY, US) observed 0055 UTC 02 December 2021
Temperature: 3.0°C (37°F)
Dewpoint: -3.0°C (27°F) [RH = 65%]
Pressure (altimeter): 30.01 inches Hg (1016.3 mb)
Winds: from the SE (140 degrees) at 5 MPH (4 knots; 2.1 m/s)
Visibility: 10 or more miles (16+ km)
Ceiling: 8500 feet AGL
Clouds: scattered clouds at 8000 feet AGL
broken clouds at 8500 feet AGL
broken clouds at 10000 feet AGL
Weather: automated observation with no human augmentation;
there may or may not be significant weather present at this time